createdAt,value
2023-06-29T00:01:43.967Z,15.07
2023-06-29T00:04:12.833Z,14.30
2023-06-29T00:06:41.787Z,14.80
2023-06-29T00:09:08.467Z,14.40
2023-06-29T00:11:35.186Z,14.35
2023-06-29T00:14:04.012Z,13.88
2023-06-29T00:16:33.036Z,13.80
2023-06-29T00:19:01.545Z,12.80
2023-06-29T00:21:31.242Z,14.18
2023-06-29T00:23:57.829Z,13.48
2023-06-29T00:26:30.097Z,13.73
2023-06-29T00:28:58.012Z,14.05
2023-06-29T00:31:25.628Z,15.50
2023-06-29T00:33:52.522Z,15.35
2023-06-29T00:36:19.538Z,14.77
2023-06-29T00:38:46.310Z,13.50
2023-06-29T00:41:12.936Z,14.85
2023-06-29T00:43:42.411Z,14.00
2023-06-29T00:46:09.358Z,14.68
2023-06-29T00:48:37.522Z,13.88
2023-06-29T00:51:05.326Z,14.65
2023-06-29T00:53:34.555Z,13.40
2023-06-29T00:56:03.715Z,13.65
2023-06-29T00:58:30.759Z,14.82
2023-06-29T01:00:58.874Z,14.10
2023-06-29T01:03:25.735Z,13.30
2023-06-29T01:05:57.281Z,13.95
2023-06-29T01:08:30.590Z,14.23
2023-06-29T01:10:58.802Z,14.65
2023-06-29T01:13:27.613Z,14.98
2023-06-29T01:15:58.560Z,14.82
2023-06-29T01:18:31.805Z,14.45
2023-06-29T01:21:00.222Z,13.82
2023-06-29T01:23:31.238Z,15.15
2023-06-29T01:25:58.718Z,14.52
2023-06-29T01:28:25.851Z,15.63
2023-06-29T01:30:57.224Z,15.27
2023-06-29T01:33:28.196Z,15.80
2023-06-29T01:36:38.378Z,15.60
2023-06-29T01:39:14.981Z,15.45
2023-06-29T01:41:44.392Z,15.90
2023-06-29T01:44:20.087Z,15.60
2023-06-29T01:46:48.877Z,15.32
2023-06-29T01:49:18.372Z,14.75
2023-06-29T01:51:47.965Z,16.40
2023-06-29T01:54:14.625Z,16.13
2023-06-29T01:56:41.295Z,16.60
2023-06-29T01:59:08.031Z,16.83
2023-06-29T02:01:36.796Z,16.52
2023-06-29T02:04:04.081Z,15.90
2023-06-29T02:06:30.692Z,16.70
2023-06-29T02:08:57.286Z,16.60
2023-06-29T02:11:24.020Z,15.70
2023-06-29T02:13:50.766Z,16.08
2023-06-29T02:16:17.612Z,16.15
2023-06-29T02:18:44.525Z,16.08
2023-06-29T02:21:11.321Z,16.48
2023-06-29T02:23:38.057Z,16.98
2023-06-29T02:26:04.678Z,17.00
2023-06-29T02:28:33.858Z,17.02
2023-06-29T02:31:00.551Z,17.92
2023-06-29T02:33:27.412Z,16.67
2023-06-29T02:35:57.361Z,17.05
2023-06-29T02:38:26.516Z,17.83
2023-06-29T02:40:53.348Z,16.55
2023-06-29T02:43:22.395Z,17.02
2023-06-29T02:45:51.285Z,17.27
2023-06-29T02:48:17.974Z,16.67
2023-06-29T02:50:44.532Z,17.10
2023-06-29T02:53:14.689Z,17.10
2023-06-29T02:55:43.750Z,18.20
2023-06-29T02:58:21.281Z,17.67
2023-06-29T03:00:50.553Z,17.25
2023-06-29T03:03:17.321Z,17.77
2023-06-29T03:05:48.874Z,17.80
2023-06-29T03:08:20.388Z,17.52
2023-06-29T03:10:47.092Z,18.85
2023-06-29T03:13:13.763Z,18.77
2023-06-29T03:15:40.467Z,17.92
2023-06-29T03:18:07.199Z,18.17
2023-06-29T03:20:33.850Z,17.95
2023-06-29T03:23:00.471Z,17.65
2023-06-29T03:25:29.400Z,18.40
2023-06-29T03:27:56.032Z,17.63
2023-06-29T03:30:24.924Z,19.25
2023-06-29T03:32:54.414Z,18.75
2023-06-29T03:35:21.688Z,18.15
2023-06-29T03:37:48.475Z,18.33
2023-06-29T03:40:15.099Z,17.95
2023-06-29T03:42:41.708Z,17.83
2023-06-29T03:45:11.801Z,17.88
2023-06-29T03:47:38.772Z,17.85
2023-06-29T03:50:05.890Z,17.92
2023-06-29T03:52:32.537Z,18.27
2023-06-29T03:54:59.139Z,16.90
2023-06-29T03:57:25.765Z,17.35
2023-06-29T03:59:52.362Z,17.58
2023-06-29T04:02:19.240Z,17.42
2023-06-29T04:04:46.852Z,17.45
2023-06-29T04:07:14.643Z,18.83
2023-06-29T04:09:41.288Z,17.20
2023-06-29T04:12:08.519Z,17.10
2023-06-29T04:14:35.168Z,17.95
2023-06-29T04:17:01.970Z,18.40
2023-06-29T04:19:28.573Z,17.60
2023-06-29T04:21:55.167Z,19.52
2023-06-29T04:24:24.668Z,17.80
2023-06-29T04:26:53.567Z,17.20
2023-06-29T04:29:21.656Z,17.33
2023-06-29T04:31:53.169Z,17.58
2023-06-29T04:34:20.136Z,17.92
2023-06-29T04:36:47.314Z,18.27
2023-06-29T04:39:25.676Z,17.55
2023-06-29T04:42:04.643Z,17.75
2023-06-29T04:44:35.836Z,17.85
2023-06-29T04:47:05.196Z,17.98
2023-06-29T04:52:21.196Z,18.75
2023-06-29T04:54:49.426Z,18.52
2023-06-29T04:57:16.674Z,18.98
2023-06-29T04:59:45.070Z,17.70
2023-06-29T05:02:13.835Z,19.40
2023-06-29T05:04:45.338Z,18.42
2023-06-29T05:07:17.368Z,18.17
2023-06-29T05:09:45.694Z,18.05
2023-06-29T05:12:22.525Z,19.70
2023-06-29T05:14:54.268Z,17.90
2023-06-29T05:17:20.884Z,18.17
2023-06-29T05:19:49.846Z,18.13
2023-06-29T05:22:16.485Z,19.20
2023-06-29T05:24:43.294Z,19.13
2023-06-29T05:27:10.011Z,18.20
2023-06-29T05:29:39.281Z,19.35
2023-06-29T05:32:06.609Z,18.75
2023-06-29T05:34:36.785Z,20.02
2023-06-29T05:37:03.831Z,19.90
2023-06-29T05:39:30.560Z,20.00
2023-06-29T05:41:57.255Z,19.60
2023-06-29T05:44:23.842Z,18.55
2023-06-29T05:46:52.708Z,20.02
2023-06-29T05:49:21.886Z,19.42
2023-06-29T05:51:48.449Z,19.65
2023-06-29T05:54:15.199Z,20.73
2023-06-29T05:56:41.867Z,19.30
2023-06-29T05:59:08.470Z,19.77
2023-06-29T06:01:36.501Z,20.05
2023-06-29T06:04:07.361Z,20.15
2023-06-29T06:06:34.059Z,19.33
2023-06-29T06:09:03.401Z,19.30
2023-06-29T06:11:30.190Z,20.10
2023-06-29T06:13:56.990Z,18.90
2023-06-29T06:16:23.666Z,18.73
2023-06-29T06:18:50.377Z,17.92
2023-06-29T06:21:17.052Z,18.17
2023-06-29T06:23:43.931Z,18.88
2023-06-29T06:26:12.614Z,17.92
2023-06-29T06:28:41.491Z,17.88
2023-06-29T06:31:12.574Z,17.02
2023-06-29T06:33:47.294Z,16.95
2023-06-29T06:36:13.928Z,16.80
2023-06-29T06:38:48.726Z,16.77
2023-06-29T06:41:21.510Z,16.27
2023-06-29T06:43:48.226Z,16.33
2023-06-29T06:46:14.842Z,15.90
2023-06-29T06:48:41.761Z,16.20
2023-06-29T06:51:08.358Z,15.45
2023-06-29T06:53:35.095Z,15.10
2023-06-29T06:56:01.835Z,16.27
2023-06-29T06:58:28.530Z,15.88
2023-06-29T07:00:57.475Z,14.75
2023-06-29T07:03:25.557Z,15.60
2023-06-29T07:05:54.620Z,14.25
2023-06-29T07:08:21.335Z,15.55
2023-06-29T07:10:52.634Z,15.00
2023-06-29T07:13:19.673Z,15.25
2023-06-29T07:15:51.706Z,14.57
2023-06-29T07:18:18.432Z,14.55
2023-06-29T07:25:45.134Z,13.85
2023-06-29T07:28:14.334Z,14.25
2023-06-29T07:30:43.198Z,14.48
2023-06-29T07:33:09.922Z,14.15
2023-06-29T07:35:39.041Z,14.18
2023-06-29T07:38:05.731Z,14.10
2023-06-29T07:40:32.958Z,14.13
2023-06-29T07:42:59.588Z,14.15
2023-06-29T07:45:26.224Z,13.95
2023-06-29T07:47:57.768Z,13.80
2023-06-29T07:50:27.216Z,16.83
2023-06-29T07:52:56.193Z,13.77
2023-06-29T07:55:25.153Z,14.82
2023-06-29T08:00:26.151Z,14.43
2023-06-29T08:02:52.952Z,15.40
2023-06-29T08:07:50.881Z,14.57
2023-06-29T08:10:18.256Z,15.23
2023-06-29T08:12:45.058Z,15.25
2023-06-29T08:15:11.778Z,14.88
2023-06-29T08:17:38.572Z,14.88
2023-06-29T08:20:13.248Z,15.48
2023-06-29T08:22:41.682Z,16.35
2023-06-29T08:25:08.864Z,15.95
2023-06-29T08:27:36.907Z,15.27
2023-06-29T08:30:06.900Z,14.98
2023-06-29T08:32:39.758Z,15.30
2023-06-29T08:35:07.411Z,14.25
2023-06-29T08:37:34.492Z,13.98
2023-06-29T08:40:03.333Z,13.95
2023-06-29T08:42:31.341Z,15.25
2023-06-29T08:45:00.501Z,15.20
2023-06-29T08:47:46.697Z,15.73
2023-06-29T08:50:15.630Z,14.90
2023-06-29T08:52:44.646Z,15.27
2023-06-29T08:55:14.260Z,14.88
2023-06-29T08:57:41.135Z,16.58
2023-06-29T09:00:10.375Z,15.95
2023-06-29T09:02:44.046Z,15.63
2023-06-29T09:05:14.766Z,17.58
2023-06-29T09:07:43.764Z,15.57
2023-06-29T09:11:52.912Z,14.13
2023-06-29T09:13:10.648Z,15.25
2023-06-29T09:15:43.640Z,14.40
2023-06-29T09:18:11.935Z,15.05
2023-06-29T09:20:38.913Z,14.93
2023-06-29T09:23:05.722Z,14.85
2023-06-29T09:25:39.581Z,14.55
2023-06-29T09:28:10.117Z,13.40
2023-06-29T09:30:39.291Z,13.48
2023-06-29T09:33:11.501Z,14.13
2023-06-29T09:35:41.983Z,14.00
2023-06-29T09:38:08.645Z,13.82
2023-06-29T09:40:47.704Z,14.05
2023-06-29T09:43:22.085Z,13.65
2023-06-29T09:45:49.350Z,14.15
2023-06-29T09:50:53.746Z,15.35
2023-06-29T09:53:34.402Z,14.82
2023-06-29T09:56:03.444Z,14.90
2023-06-29T09:58:31.757Z,15.05
2023-06-29T10:00:59.718Z,14.65
2023-06-29T10:03:28.540Z,15.07
2023-06-29T10:05:58.834Z,14.32
2023-06-29T10:08:28.407Z,14.88
2023-06-29T10:11:03.433Z,15.57
2023-06-29T10:13:38.728Z,15.07
2023-06-29T10:16:10.102Z,14.20
2023-06-29T10:18:44.353Z,15.10
2023-06-29T10:21:11.731Z,15.43
2023-06-29T10:23:46.626Z,15.07
2023-06-29T10:26:13.853Z,16.35
2023-06-29T10:28:41.542Z,16.48
2023-06-29T10:31:08.221Z,15.88
2023-06-29T10:33:46.843Z,16.63
2023-06-29T10:36:19.580Z,17.23
2023-06-29T10:38:46.291Z,16.02
2023-06-29T10:41:29.895Z,16.77
2023-06-29T10:44:04.532Z,16.38
2023-06-29T10:46:50.708Z,17.77
2023-06-29T10:49:24.423Z,16.80
2023-06-29T10:51:55.062Z,16.52
2023-06-29T10:54:23.637Z,16.75
2023-06-29T10:57:31.276Z,16.48
2023-06-29T10:59:58.097Z,16.25
2023-06-29T11:02:27.515Z,16.02
2023-06-29T11:04:59.022Z,16.65
2023-06-29T11:07:26.925Z,16.55
2023-06-29T11:10:03.781Z,16.55
2023-06-29T11:12:30.521Z,16.77
2023-06-29T11:17:45.205Z,16.77
2023-06-29T11:20:16.330Z,18.63
2023-06-29T11:22:44.069Z,18.38
2023-06-29T11:25:20.068Z,18.10
2023-06-29T11:27:46.877Z,17.23
2023-06-29T11:30:16.139Z,17.23
2023-06-29T11:32:43.356Z,17.45
2023-06-29T11:35:11.791Z,17.02
2023-06-29T11:37:42.124Z,17.30
2023-06-29T11:40:22.264Z,18.17
2023-06-29T11:42:55.578Z,19.08
2023-06-29T11:45:23.213Z,18.02
2023-06-29T11:47:56.449Z,17.73
2023-06-29T11:50:25.301Z,17.02
2023-06-29T11:52:52.426Z,18.60
2023-06-29T11:55:23.674Z,19.27
2023-06-29T11:57:58.122Z,18.67
2023-06-29T12:00:24.726Z,17.67
2023-06-29T12:02:51.528Z,19.17
2023-06-29T12:05:18.220Z,21.25
2023-06-29T12:07:46.898Z,20.30
2023-06-29T12:10:22.460Z,20.92
2023-06-29T12:13:00.898Z,20.25
2023-06-29T12:15:29.201Z,20.90
2023-06-29T12:18:16.633Z,21.15
2023-06-29T12:20:46.767Z,20.65
2023-06-29T12:23:17.457Z,21.65
2023-06-29T12:25:49.250Z,21.33
2023-06-29T12:28:16.052Z,20.77
2023-06-29T12:30:43.764Z,22.98
2023-06-29T12:33:14.316Z,23.25
2023-06-29T12:35:41.719Z,22.48
2023-06-29T12:38:08.468Z,21.88
2023-06-29T12:40:35.533Z,23.88
2023-06-29T12:43:02.275Z,23.92
2023-06-29T12:45:29.372Z,24.23
2023-06-29T12:47:58.690Z,25.20
2023-06-29T12:50:30.517Z,24.10
2023-06-29T12:52:59.302Z,24.65
2023-06-29T12:55:30.776Z,25.00
2023-06-29T12:57:59.773Z,24.60
2023-06-29T13:00:28.673Z,24.48
2023-06-29T13:02:55.489Z,25.42
2023-06-29T13:05:22.389Z,24.58
2023-06-29T13:07:49.228Z,26.65
2023-06-29T13:10:15.999Z,23.08
2023-06-29T13:12:42.973Z,17.90
2023-06-29T13:15:10.401Z,16.50
2023-06-29T13:17:39.400Z,15.38
2023-06-29T13:20:06.591Z,14.82
2023-06-29T13:22:34.989Z,14.82
2023-06-29T13:25:02.473Z,16.55
2023-06-29T13:27:35.502Z,16.45
2023-06-29T13:30:03.208Z,16.30
2023-06-29T13:32:30.875Z,17.48
2023-06-29T13:34:58.118Z,16.45
2023-06-29T13:37:34.079Z,16.80
2023-06-29T13:40:03.194Z,14.65
2023-06-29T13:42:31.234Z,14.98
2023-06-29T13:44:58.726Z,14.65
2023-06-29T13:47:26.700Z,14.98
2023-06-29T13:49:53.727Z,15.23
2023-06-29T13:52:24.325Z,14.88
2023-06-29T13:54:51.318Z,14.32
2023-06-29T13:57:18.281Z,15.05
2023-06-29T13:59:52.874Z,14.93
2023-06-29T14:02:21.059Z,14.45
2023-06-29T14:04:48.367Z,15.50
2023-06-29T14:07:21.403Z,14.63
2023-06-29T14:09:50.505Z,15.30
2023-06-29T14:12:18.672Z,14.10
2023-06-29T14:14:50.417Z,14.90
2023-06-29T14:17:22.903Z,15.38
2023-06-29T14:19:50.886Z,14.60
2023-06-29T14:22:20.353Z,14.82
2023-06-29T14:24:47.144Z,15.70
2023-06-29T14:27:17.182Z,16.48
2023-06-29T14:29:43.969Z,15.35
2023-06-29T14:32:10.585Z,15.50
2023-06-29T14:34:37.280Z,16.50
2023-06-29T14:37:04.046Z,16.25
2023-06-29T14:39:31.828Z,16.48
2023-06-29T14:42:00.045Z,15.70
2023-06-29T14:44:26.736Z,16.30
2023-06-29T14:46:53.428Z,15.98
2023-06-29T14:49:20.158Z,16.38
2023-06-29T14:51:46.839Z,15.82
2023-06-29T14:54:20.303Z,17.08
2023-06-29T14:56:47.106Z,16.63
2023-06-29T14:59:13.881Z,16.02
2023-06-29T15:01:40.738Z,16.23
2023-06-29T15:04:07.682Z,15.93
2023-06-29T15:06:34.396Z,16.38
2023-06-29T15:09:03.594Z,15.85
2023-06-29T15:11:32.542Z,14.48
2023-06-29T15:13:59.211Z,15.48
2023-06-29T15:16:27.934Z,14.20
2023-06-29T15:19:00.319Z,14.45
2023-06-29T15:21:30.141Z,14.55
2023-06-29T15:23:56.788Z,14.15
2023-06-29T15:26:28.621Z,14.45
2023-06-29T15:28:55.231Z,14.43
2023-06-29T15:31:21.919Z,16.77
2023-06-29T15:33:48.669Z,14.70
2023-06-29T15:36:15.454Z,13.85
2023-06-29T15:38:42.297Z,14.82
2023-06-29T15:41:08.913Z,16.00
2023-06-29T15:43:42.985Z,15.60
2023-06-29T15:46:14.242Z,15.50
2023-06-29T15:48:45.400Z,15.57
2023-06-29T15:51:12.242Z,16.08
2023-06-29T15:53:40.808Z,15.32
2023-06-29T15:56:08.335Z,17.15
2023-06-29T15:58:40.335Z,15.88
2023-06-29T16:01:10.784Z,16.48
2023-06-29T16:03:37.504Z,15.18
2023-06-29T16:06:04.230Z,15.60
2023-06-29T16:08:33.150Z,13.05
2023-06-29T16:10:59.862Z,14.40
2023-06-29T16:13:28.861Z,12.57
2023-06-29T16:15:55.649Z,13.20
2023-06-29T16:18:22.364Z,13.27
2023-06-29T16:20:49.858Z,14.55
2023-06-29T16:23:16.505Z,14.32
2023-06-29T16:25:43.489Z,13.00
2023-06-29T16:28:10.429Z,12.85
2023-06-29T16:30:37.094Z,11.93
2023-06-29T16:33:03.990Z,11.63
2023-06-29T16:35:31.238Z,10.27
2023-06-29T16:37:57.916Z,9.77
2023-06-29T16:40:29.456Z,9.65
2023-06-29T16:42:57.904Z,9.10
2023-06-29T16:45:26.344Z,9.00
2023-06-29T16:47:54.838Z,8.80
2023-06-29T16:50:26.497Z,8.52
2023-06-29T16:52:53.057Z,7.75
2023-06-29T16:55:19.692Z,7.47
2023-06-29T16:57:46.433Z,6.78
2023-06-29T17:00:18.861Z,6.47
2023-06-29T17:02:48.114Z,5.85
2023-06-29T17:05:14.857Z,5.43
2023-06-29T17:07:41.627Z,4.43
2023-06-29T17:10:08.520Z,3.80
2023-06-29T17:12:35.463Z,2.60
2023-06-29T17:15:02.153Z,2.70
2023-06-29T17:17:28.974Z,2.72
2023-06-29T17:19:55.729Z,2.50
2023-06-29T17:22:22.671Z,2.40
2023-06-29T17:24:49.273Z,2.17
2023-06-29T17:27:16.348Z,2.17
2023-06-29T17:29:43.259Z,2.30
2023-06-29T17:32:10.245Z,2.53
2023-06-29T17:34:37.758Z,1.75
2023-06-29T17:37:04.554Z,2.55
2023-06-29T17:39:33.581Z,2.17
2023-06-29T17:42:00.529Z,2.13
2023-06-29T17:44:27.487Z,2.00
2023-06-29T17:46:54.302Z,2.03
2023-06-29T17:49:22.223Z,2.55
2023-06-29T17:51:48.870Z,2.92
2023-06-29T17:54:15.831Z,3.75
2023-06-29T17:56:44.719Z,3.80
2023-06-29T17:59:14.417Z,3.45
2023-06-29T18:01:41.086Z,3.22
2023-06-29T18:04:08.038Z,2.20
2023-06-29T18:06:34.805Z,1.60
2023-06-29T18:09:01.728Z,1.20
2023-06-29T18:11:28.844Z,1.20
2023-06-29T18:13:55.570Z,1.00
2023-06-29T18:16:22.480Z,1.00
2023-06-29T18:18:49.190Z,1.20
2023-06-29T18:21:15.919Z,1.40
2023-06-29T18:23:42.661Z,1.70
2023-06-29T18:26:09.307Z,2.10
2023-06-29T18:28:36.052Z,2.10
2023-06-29T18:31:02.892Z,1.50
2023-06-29T18:33:29.987Z,1.30
2023-06-29T18:35:56.636Z,1.20
2023-06-29T18:38:25.631Z,1.40
2023-06-29T18:40:52.304Z,1.35
2023-06-29T18:43:21.294Z,1.48
2023-06-29T18:45:48.165Z,1.60
2023-06-29T18:48:15.216Z,1.73
2023-06-29T18:50:42.620Z,2.10
2023-06-29T18:53:09.348Z,1.83
2023-06-29T18:55:36.653Z,2.13
2023-06-29T18:58:03.444Z,2.65
2023-06-29T19:00:32.377Z,3.08
2023-06-29T19:02:59.130Z,2.97
2023-06-29T19:05:28.006Z,2.58
2023-06-29T19:07:54.909Z,2.25
2023-06-29T19:10:21.660Z,2.28
2023-06-29T19:12:50.600Z,2.28
2023-06-29T19:15:17.354Z,2.00
2023-06-29T19:17:44.165Z,1.92
2023-06-29T19:20:11.604Z,2.05
2023-06-29T19:22:38.229Z,2.05
2023-06-29T19:25:05.412Z,2.00
2023-06-29T19:27:32.122Z,1.70
2023-06-29T19:29:58.836Z,1.83
2023-06-29T19:32:25.532Z,1.80
2023-06-29T19:34:52.225Z,2.78
2023-06-29T19:37:19.052Z,2.40
2023-06-29T19:39:45.621Z,2.63
2023-06-29T19:42:12.386Z,2.30
2023-06-29T19:44:39.054Z,2.72
2023-06-29T19:47:05.762Z,2.90
2023-06-29T19:49:32.740Z,2.75
2023-06-29T19:52:02.240Z,2.70
2023-06-29T19:54:33.456Z,3.10
2023-06-29T19:57:00.103Z,2.25
2023-06-29T19:59:32.073Z,2.42
2023-06-29T20:01:58.712Z,2.40
2023-06-29T20:04:27.736Z,2.00
2023-06-29T20:06:54.586Z,2.17
2023-06-29T20:09:24.225Z,1.70
2023-06-29T20:11:50.964Z,1.80
2023-06-29T20:14:17.625Z,1.75
2023-06-29T20:16:47.549Z,1.67
2023-06-29T20:19:16.768Z,1.40
2023-06-29T20:21:43.452Z,1.70
2023-06-29T20:24:10.582Z,1.58
2023-06-29T20:26:44.022Z,1.85
2023-06-29T20:29:10.652Z,1.90
2023-06-29T20:31:37.435Z,1.60
2023-06-29T20:34:04.241Z,1.95
2023-06-29T20:36:30.866Z,1.88
2023-06-29T20:38:57.550Z,1.50
2023-06-29T20:41:24.567Z,1.80
2023-06-29T20:43:54.332Z,1.88
2023-06-29T20:46:20.934Z,1.85
2023-06-29T20:48:47.600Z,2.10
2023-06-29T20:51:18.218Z,1.73
2023-06-29T20:53:47.421Z,2.30
2023-06-29T20:56:14.096Z,2.13
2023-06-29T20:58:41.005Z,2.10
2023-06-29T21:01:08.056Z,2.20
2023-06-29T21:03:38.978Z,2.13
2023-06-29T21:06:05.845Z,2.10
2023-06-29T21:08:32.496Z,2.00
2023-06-29T21:10:59.127Z,2.47
2023-06-29T21:13:26.118Z,2.00
2023-06-29T21:15:53.054Z,2.75
2023-06-29T21:18:20.541Z,1.80
2023-06-29T21:20:47.575Z,2.00
2023-06-29T21:23:14.358Z,2.05
2023-06-29T21:25:43.945Z,1.90
2023-06-29T21:28:12.253Z,1.80
2023-06-29T21:30:39.186Z,2.28
2023-06-29T21:33:06.318Z,2.17
2023-06-29T21:35:35.764Z,2.72
2023-06-29T21:38:03.251Z,2.63
2023-06-29T21:40:29.888Z,2.97
2023-06-29T21:42:56.498Z,2.70
2023-06-29T21:45:26.038Z,2.38
2023-06-29T21:47:54.931Z,2.83
2023-06-29T21:50:21.688Z,3.65
2023-06-29T21:52:48.303Z,3.03
2023-06-29T21:55:15.579Z,3.35
2023-06-29T21:57:46.966Z,2.67
2023-06-29T22:00:14.347Z,2.70
2023-06-29T22:02:43.813Z,3.10
2023-06-29T22:05:11.819Z,3.13
2023-06-29T22:07:38.546Z,3.22
2023-06-29T22:10:08.483Z,2.85
2023-06-29T22:12:42.640Z,2.53
2023-06-29T22:15:12.820Z,3.15
2023-06-29T22:17:43.437Z,3.58
2023-06-29T22:20:23.521Z,3.05
2023-06-29T22:22:50.461Z,3.40
2023-06-29T22:25:18.005Z,3.25
2023-06-29T22:27:44.837Z,2.85
2023-06-29T22:30:11.689Z,3.08
2023-06-29T22:32:41.806Z,3.05
2023-06-29T22:35:12.438Z,2.65
2023-06-29T22:37:39.112Z,2.40
2023-06-29T22:40:06.952Z,2.42
2023-06-29T22:42:33.613Z,2.28
2023-06-29T22:45:00.248Z,2.33
2023-06-29T22:47:29.292Z,2.05
2023-06-29T22:49:56.026Z,2.58
2023-06-29T22:52:24.128Z,2.50
2023-06-29T22:54:53.669Z,2.05
2023-06-29T22:57:23.691Z,1.75
2023-06-29T22:59:50.827Z,2.08
2023-06-29T23:02:18.406Z,2.25
2023-06-29T23:04:45.315Z,1.92
2023-06-29T23:07:12.411Z,1.83
2023-06-29T23:09:39.085Z,1.83
2023-06-29T23:12:06.160Z,1.92
2023-06-29T23:14:36.345Z,1.80
2023-06-29T23:17:06.012Z,2.30
2023-06-29T23:19:35.401Z,1.92
2023-06-29T23:22:04.028Z,2.10
2023-06-29T23:24:30.993Z,2.00
2023-06-29T23:26:57.938Z,2.38
2023-06-29T23:29:24.500Z,2.10
2023-06-29T23:31:54.916Z,2.10
2023-06-29T23:34:23.771Z,1.80
2023-06-29T23:36:53.419Z,1.80
2023-06-29T23:39:20.984Z,1.80
2023-06-29T23:41:47.660Z,2.40
2023-06-29T23:44:14.733Z,1.83
2023-06-29T23:46:44.694Z,2.22
2023-06-29T23:49:13.190Z,2.30
2023-06-29T23:51:40.051Z,2.00
2023-06-29T23:54:11.170Z,2.13
2023-06-29T23:56:41.492Z,2.05
2023-06-29T23:59:11.919Z,2.10
